Terminal Aerodrome Forecast
Issued by NWS

Home | Current Version | Previous Version | Text Only | Print | Product List | Glossary On
Versions: 1 2 3 4 5 6 7 8 9 10 11 12 13 14 15 16 17 18 19 20 21 22 23
000
FTUS43 KTOP 241131
TAFFOE
TAF
KFOE 241131Z 2412/2512 31007KT P6SM BKN012
      TEMPO 2412/2415 SCT012 BKN035
     FM241500 33011KT P6SM SCT060
     FM250100 33004KT P6SM FEW200=

USA.gov is the U.S. government's official web portal to all federal, state and local government web resources and services.